createdAt,value
2022-07-26T00:01:46.893Z,11.63
2022-07-26T00:04:13.850Z,11.98
2022-07-26T00:06:41.730Z,11.82
2022-07-26T00:09:09.010Z,10.65
2022-07-26T00:11:36.198Z,11.27
2022-07-26T00:14:06.982Z,9.88
2022-07-26T00:16:34.223Z,10.98
2022-07-26T00:19:01.224Z,10.20
2022-07-26T00:21:28.191Z,9.48
2022-07-26T00:23:55.141Z,8.10
2022-07-26T00:26:22.166Z,8.60
2022-07-26T00:28:49.558Z,7.72
2022-07-26T00:31:16.677Z,8.30
2022-07-26T00:33:43.628Z,7.93
2022-07-26T00:36:10.588Z,8.15
2022-07-26T00:38:38.329Z,8.30
2022-07-26T00:41:06.743Z,8.48
2022-07-26T00:43:33.830Z,11.13
2022-07-26T00:46:02.571Z,9.82
2022-07-26T00:48:29.629Z,11.25
2022-07-26T00:50:56.662Z,10.75
2022-07-26T00:53:24.057Z,13.30
2022-07-26T00:55:51.213Z,11.98
2022-07-26T00:58:18.741Z,10.18
2022-07-26T01:00:45.758Z,10.63
2022-07-26T01:03:12.748Z,10.15
2022-07-26T01:05:39.765Z,11.45
2022-07-26T01:08:06.665Z,11.23
2022-07-26T01:10:33.897Z,12.07
2022-07-26T01:13:00.866Z,13.57
2022-07-26T01:15:27.762Z,13.88
2022-07-26T01:17:54.731Z,16.73
2022-07-26T01:20:21.673Z,25.17
2022-07-26T01:22:48.700Z,24.30
2022-07-26T01:25:16.086Z,38.85
2022-07-26T01:27:43.917Z,47.53
2022-07-26T01:30:12.788Z,43.70
2022-07-26T01:32:40.562Z,45.72
2022-07-26T01:35:09.036Z,44.17
2022-07-26T01:37:36.041Z,43.08
2022-07-26T01:40:04.650Z,43.35
2022-07-26T01:42:31.773Z,44.60
2022-07-26T01:44:58.606Z,42.50
2022-07-26T01:47:25.490Z,43.72
2022-07-26T01:49:52.455Z,44.42
2022-07-26T01:52:19.283Z,43.15
2022-07-26T01:54:46.110Z,41.97
2022-07-26T01:57:12.964Z,39.17
2022-07-26T01:59:39.837Z,39.47
2022-07-26T02:02:06.805Z,37.00
2022-07-26T02:04:52.275Z,34.88
2022-07-26T02:07:19.243Z,37.70
2022-07-26T02:09:46.492Z,36.80
2022-07-26T02:12:14.716Z,35.33
2022-07-26T02:14:41.659Z,39.28
2022-07-26T02:17:08.810Z,42.25
2022-07-26T02:19:36.031Z,39.70
2022-07-26T02:22:03.757Z,37.67
2022-07-26T02:24:30.761Z,42.20
2022-07-26T02:27:00.120Z,39.72
2022-07-26T02:29:27.984Z,38.65
2022-07-26T02:31:55.924Z,40.00
2022-07-26T02:34:23.561Z,39.00
2022-07-26T02:36:50.677Z,39.85
2022-07-26T02:39:18.023Z,39.08
2022-07-26T02:41:44.995Z,38.88
2022-07-26T02:44:12.193Z,37.70
2022-07-26T02:46:39.354Z,37.63
2022-07-26T02:49:06.418Z,34.22
2022-07-26T02:51:33.354Z,36.05
2022-07-26T02:54:10.715Z,32.83
2022-07-26T02:56:38.370Z,36.05
2022-07-26T02:59:05.717Z,34.67
2022-07-26T03:01:35.198Z,32.00
2022-07-26T03:04:02.850Z,32.00
2022-07-26T03:06:29.711Z,28.60
2022-07-26T03:08:56.801Z,29.55
2022-07-26T03:11:23.741Z,30.95
2022-07-26T03:13:50.589Z,33.38
2022-07-26T03:16:21.784Z,27.95
2022-07-26T03:18:50.734Z,28.90
2022-07-26T03:21:17.608Z,30.25
2022-07-26T03:23:44.418Z,27.88
2022-07-26T03:26:11.412Z,25.60
2022-07-26T03:28:39.450Z,24.10
2022-07-26T03:31:06.421Z,25.30
2022-07-26T03:33:33.297Z,24.02
2022-07-26T03:36:00.173Z,21.85
2022-07-26T03:38:27.988Z,18.45
2022-07-26T03:40:54.813Z,18.30
2022-07-26T03:43:23.416Z,14.68
2022-07-26T03:45:52.496Z,14.45
2022-07-26T03:48:21.764Z,13.52
2022-07-26T03:50:48.601Z,13.00
2022-07-26T03:53:15.451Z,12.90
2022-07-26T03:56:00.848Z,12.55
2022-07-26T03:58:27.712Z,12.38
2022-07-26T04:00:54.604Z,12.52
2022-07-26T04:03:22.767Z,12.20
2022-07-26T04:05:49.866Z,14.38
2022-07-26T04:08:19.676Z,12.52
2022-07-26T04:10:51.028Z,12.00
2022-07-26T04:13:19.564Z,11.18
2022-07-26T04:15:47.054Z,11.32
2022-07-26T04:18:16.750Z,11.35
2022-07-26T04:20:44.353Z,10.60
2022-07-26T04:23:12.566Z,11.35
2022-07-26T04:25:41.674Z,9.48
2022-07-26T04:28:10.507Z,9.82
2022-07-26T04:30:38.468Z,9.52
2022-07-26T04:33:06.398Z,9.32
2022-07-26T04:35:34.320Z,9.10
2022-07-26T04:38:04.749Z,8.45
2022-07-26T04:40:34.575Z,7.57
2022-07-26T04:43:08.573Z,7.20
2022-07-26T04:45:37.323Z,7.45
2022-07-26T04:48:04.764Z,6.93
2022-07-26T04:50:31.703Z,6.05
2022-07-26T04:52:58.587Z,6.53
2022-07-26T04:55:25.717Z,6.28
2022-07-26T04:57:52.644Z,6.20
2022-07-26T05:00:24.774Z,4.72
2022-07-26T05:02:55.907Z,5.05
2022-07-26T05:05:24.884Z,4.53
2022-07-26T05:07:55.690Z,4.40
2022-07-26T05:10:30.050Z,4.18
2022-07-26T05:12:57.067Z,4.10
2022-07-26T05:15:24.720Z,4.90
2022-07-26T05:17:51.565Z,3.92
2022-07-26T05:20:19.138Z,3.92
2022-07-26T05:22:46.137Z,3.70
2022-07-26T05:25:13.150Z,4.20
2022-07-26T05:27:41.622Z,4.10
2022-07-26T05:30:10.150Z,3.67
2022-07-26T05:32:37.323Z,4.22
2022-07-26T05:35:05.372Z,3.90
2022-07-26T05:37:32.234Z,4.10
2022-07-26T05:39:59.220Z,4.00
2022-07-26T05:42:26.728Z,3.85
2022-07-26T05:44:53.804Z,4.15
2022-07-26T05:47:23.020Z,3.60
2022-07-26T05:49:49.921Z,3.85
2022-07-26T05:52:16.899Z,3.95
2022-07-26T05:54:43.732Z,4.40
2022-07-26T05:57:10.600Z,3.53
2022-07-26T05:59:37.535Z,4.32
2022-07-26T06:02:04.513Z,3.85
2022-07-26T06:04:31.572Z,3.58
2022-07-26T06:06:58.482Z,3.70
2022-07-26T06:09:26.927Z,3.53
2022-07-26T06:11:53.888Z,4.00
2022-07-26T06:14:21.101Z,3.38
2022-07-26T06:16:48.371Z,3.42
2022-07-26T06:19:15.792Z,3.38
2022-07-26T06:21:42.732Z,4.10
2022-07-26T06:24:10.038Z,3.53
2022-07-26T06:26:37.381Z,3.70
2022-07-26T06:29:04.712Z,3.30
2022-07-26T06:31:31.638Z,2.60
2022-07-26T06:33:58.491Z,2.97
2022-07-26T06:36:30.224Z,2.58
2022-07-26T06:38:58.114Z,2.47
2022-07-26T06:41:25.182Z,2.42
2022-07-26T06:43:52.134Z,2.35
2022-07-26T06:46:20.869Z,2.90
2022-07-26T06:48:52.634Z,2.38
2022-07-26T06:51:20.884Z,1.95
2022-07-26T06:53:48.026Z,1.85
2022-07-26T06:56:17.190Z,1.83
2022-07-26T06:58:44.175Z,1.65
2022-07-26T07:01:11.283Z,2.17
2022-07-26T07:03:38.240Z,1.42
2022-07-26T07:06:05.431Z,1.85
2022-07-26T07:08:32.296Z,1.95
2022-07-26T07:10:59.184Z,1.73
2022-07-26T07:13:26.236Z,1.58
2022-07-26T07:15:53.642Z,1.85
2022-07-26T07:18:21.442Z,2.15
2022-07-26T07:20:48.307Z,1.83
2022-07-26T07:23:15.232Z,2.10
2022-07-26T07:25:44.851Z,1.60
2022-07-26T07:28:11.996Z,1.40
2022-07-26T07:30:38.850Z,1.70
2022-07-26T07:33:09.359Z,1.50
2022-07-26T07:35:51.122Z,1.90
2022-07-26T07:38:18.401Z,1.27
2022-07-26T07:40:46.061Z,1.50
2022-07-26T07:43:12.937Z,1.50
2022-07-26T07:45:39.810Z,1.52
2022-07-26T07:48:07.005Z,1.50
2022-07-26T07:50:34.179Z,1.42
2022-07-26T07:53:01.978Z,1.58
2022-07-26T07:55:41.266Z,1.15
2022-07-26T07:58:11.135Z,1.67
2022-07-26T08:00:38.681Z,1.45
2022-07-26T08:03:05.578Z,1.50
2022-07-26T08:05:32.544Z,1.05
2022-07-26T08:07:59.573Z,1.35
2022-07-26T08:10:26.922Z,1.10
2022-07-26T08:12:53.760Z,1.48
2022-07-26T08:15:23.311Z,1.35
2022-07-26T08:17:54.853Z,1.50
2022-07-26T08:20:22.940Z,1.10
2022-07-26T08:22:50.841Z,1.40
2022-07-26T08:25:17.912Z,1.23
2022-07-26T08:27:55.024Z,1.17
2022-07-26T08:30:29.954Z,1.35
2022-07-26T08:32:56.814Z,1.27
2022-07-26T08:35:23.986Z,1.20
2022-07-26T08:37:50.901Z,1.20
2022-07-26T08:40:18.050Z,1.33
2022-07-26T08:42:56.797Z,1.35
2022-07-26T08:45:30.456Z,1.40
2022-07-26T08:48:17.125Z,1.85
2022-07-26T08:50:45.426Z,1.30
2022-07-26T08:53:13.414Z,1.20
2022-07-26T08:56:05.442Z,1.35
2022-07-26T08:58:27.665Z,1.30
2022-07-26T09:01:09.690Z,1.52
2022-07-26T09:03:37.985Z,1.10
2022-07-26T09:06:20.101Z,1.42
2022-07-26T09:08:52.181Z,1.58
2022-07-26T09:11:24.960Z,1.30
2022-07-26T09:14:03.925Z,1.27
2022-07-26T09:16:34.143Z,2.20
2022-07-26T09:19:23.491Z,0.93
2022-07-26T09:21:51.880Z,1.20
2022-07-26T09:24:35.644Z,1.23
2022-07-26T09:27:06.164Z,1.73
2022-07-26T09:30:09.134Z,0.90
2022-07-26T09:32:36.984Z,1.20
2022-07-26T09:35:46.004Z,1.20
2022-07-26T09:38:15.871Z,1.20
2022-07-26T09:40:44.826Z,1.20
2022-07-26T09:43:19.717Z,1.52
2022-07-26T09:48:59.448Z,1.30
2022-07-26T09:51:43.685Z,1.45
2022-07-26T09:54:13.155Z,1.13
2022-07-26T09:56:47.798Z,1.73
2022-07-26T09:59:22.008Z,1.23
2022-07-26T10:04:19.190Z,1.08
2022-07-26T10:06:46.365Z,0.95
2022-07-26T10:09:15.065Z,1.40
2022-07-26T10:11:50.550Z,1.25
2022-07-26T10:14:37.655Z,1.10
2022-07-26T10:17:31.603Z,0.82
2022-07-26T10:20:10.796Z,1.20
2022-07-26T10:22:48.155Z,0.80
2022-07-26T10:25:18.019Z,1.35
2022-07-26T10:27:54.696Z,1.30
2022-07-26T10:30:28.867Z,1.00
2022-07-26T10:33:27.154Z,0.93
2022-07-26T10:35:54.018Z,1.15
2022-07-26T10:38:27.068Z,1.00
2022-07-26T10:41:07.601Z,1.20
2022-07-26T10:43:42.912Z,1.23
2022-07-26T10:46:15.997Z,1.00
2022-07-26T10:49:03.681Z,1.13
2022-07-26T10:51:40.708Z,0.98
2022-07-26T10:54:12.035Z,0.88
2022-07-26T10:56:40.548Z,0.98
2022-07-26T10:59:07.856Z,0.75
2022-07-26T11:01:40.408Z,0.80
2022-07-26T11:04:21.656Z,1.10
2022-07-26T11:06:48.890Z,0.80
2022-07-26T11:09:18.851Z,0.80
2022-07-26T11:11:48.519Z,0.80
2022-07-26T11:14:19.196Z,0.82
2022-07-26T11:16:50.638Z,1.00
2022-07-26T11:19:21.054Z,0.70
2022-07-26T11:21:57.093Z,0.75
2022-07-26T11:24:24.253Z,0.73
2022-07-26T11:26:51.243Z,0.77
2022-07-26T11:29:37.324Z,0.80
2022-07-26T11:32:21.988Z,0.70
2022-07-26T11:35:03.578Z,1.10
2022-07-26T11:37:30.983Z,0.90
2022-07-26T11:39:57.947Z,0.70
2022-07-26T11:42:24.956Z,1.00
2022-07-26T11:44:53.773Z,0.90
2022-07-26T11:47:24.193Z,0.88
2022-07-26T11:52:40.951Z,0.90
2022-07-26T11:55:08.870Z,0.70
2022-07-26T11:57:35.791Z,0.75
2022-07-26T12:00:04.382Z,0.85
2022-07-26T12:02:40.528Z,0.70
2022-07-26T12:05:21.069Z,0.60
2022-07-26T12:08:00.254Z,0.60
2022-07-26T12:10:29.108Z,0.68
2022-07-26T12:13:14.801Z,0.60
2022-07-26T12:15:51.204Z,0.70
2022-07-26T12:18:30.568Z,0.60
2022-07-26T12:21:06.613Z,0.63
2022-07-26T12:23:49.496Z,0.60
2022-07-26T12:26:28.212Z,0.73
2022-07-26T12:28:58.423Z,0.65
2022-07-26T12:31:31.734Z,0.68
2022-07-26T12:33:59.481Z,0.73
2022-07-26T12:36:28.365Z,0.77
2022-07-26T12:39:00.424Z,0.70
2022-07-26T12:41:31.618Z,0.60
2022-07-26T12:43:59.589Z,0.50
2022-07-26T12:46:26.575Z,0.50
2022-07-26T12:48:56.805Z,0.75
2022-07-26T12:51:27.263Z,0.60
2022-07-26T12:53:54.127Z,0.50
2022-07-26T12:56:21.066Z,0.68
2022-07-26T12:58:47.963Z,0.65
2022-07-26T13:01:15.125Z,0.80
2022-07-26T13:03:42.082Z,0.55
2022-07-26T13:06:09.039Z,0.70
2022-07-26T13:08:35.986Z,0.50
2022-07-26T13:11:02.909Z,0.60
2022-07-26T13:13:30.388Z,0.52
2022-07-26T13:15:57.270Z,0.70
2022-07-26T13:18:24.163Z,1.00
2022-07-26T13:20:51.115Z,0.68
2022-07-26T13:23:22.026Z,0.88
2022-07-26T13:25:52.908Z,0.70
2022-07-26T13:28:20.058Z,1.20
2022-07-26T13:30:46.949Z,0.70
2022-07-26T13:33:13.976Z,0.80
2022-07-26T13:35:42.466Z,0.90
2022-07-26T13:38:10.005Z,1.10
2022-07-26T13:40:37.317Z,0.80
2022-07-26T13:43:04.893Z,0.70
2022-07-26T13:45:31.783Z,0.75
2022-07-26T13:47:59.479Z,0.60
2022-07-26T13:50:29.688Z,1.05
2022-07-26T13:52:57.293Z,0.75
2022-07-26T13:55:25.675Z,0.60
2022-07-26T13:57:56.710Z,0.70
2022-07-26T14:00:27.622Z,0.80
2022-07-26T14:02:58.209Z,0.80
2022-07-26T14:05:26.125Z,0.80
2022-07-26T14:07:54.230Z,1.05
2022-07-26T14:10:23.658Z,1.17
2022-07-26T14:12:51.279Z,0.80
2022-07-26T14:15:22.701Z,0.80
2022-07-26T14:17:53.638Z,0.90
2022-07-26T14:20:21.871Z,0.80
2022-07-26T14:22:53.966Z,0.93
2022-07-26T14:25:22.810Z,0.80
2022-07-26T14:27:54.943Z,0.93
2022-07-26T14:30:22.592Z,0.73
2022-07-26T14:32:49.939Z,0.90
2022-07-26T14:35:18.315Z,0.85
2022-07-26T14:37:45.960Z,0.90
2022-07-26T14:40:17.263Z,0.95
2022-07-26T14:42:46.004Z,0.73
2022-07-26T14:45:13.684Z,0.90
2022-07-26T14:47:41.036Z,1.00
2022-07-26T14:50:10.304Z,0.90
2022-07-26T14:52:48.130Z,0.90
2022-07-26T14:55:20.404Z,1.00
2022-07-26T14:57:51.578Z,1.08
2022-07-26T15:00:18.738Z,0.98
2022-07-26T15:02:50.555Z,0.88
2022-07-26T15:05:18.375Z,1.30
2022-07-26T15:07:46.531Z,1.15
2022-07-26T15:10:15.086Z,1.33
2022-07-26T15:12:43.152Z,0.90
2022-07-26T15:15:11.553Z,2.00
2022-07-26T15:17:38.544Z,1.05
2022-07-26T15:20:06.867Z,1.08
2022-07-26T15:22:35.521Z,1.30
2022-07-26T15:25:02.909Z,1.75
2022-07-26T15:27:29.737Z,1.10
2022-07-26T15:30:02.793Z,1.20
2022-07-26T15:32:30.305Z,1.10
2022-07-26T15:34:57.291Z,1.30
2022-07-26T15:37:24.794Z,1.08
2022-07-26T15:39:51.983Z,2.05
2022-07-26T15:42:19.518Z,1.73
2022-07-26T15:44:48.448Z,2.38
2022-07-26T15:47:43.553Z,2.60
2022-07-26T15:50:06.950Z,3.92
2022-07-26T15:52:39.982Z,4.28
2022-07-26T15:55:09.007Z,4.22
2022-07-26T15:57:36.299Z,4.95
2022-07-26T16:00:05.591Z,5.10
2022-07-26T16:02:40.334Z,6.03
2022-07-26T16:05:09.721Z,7.57
2022-07-26T16:07:37.193Z,7.78
2022-07-26T16:10:07.363Z,7.78
2022-07-26T16:12:34.604Z,7.38
2022-07-26T16:15:01.535Z,6.35
2022-07-26T16:17:28.408Z,5.97
2022-07-26T16:19:55.256Z,5.35
2022-07-26T16:22:22.178Z,5.20
2022-07-26T16:24:49.038Z,4.85
2022-07-26T16:27:16.053Z,4.07
2022-07-26T16:29:46.787Z,3.70
2022-07-26T16:32:16.093Z,4.13
2022-07-26T16:34:43.184Z,4.57
2022-07-26T16:37:10.147Z,4.30
2022-07-26T16:39:37.027Z,4.28
2022-07-26T16:42:07.227Z,4.55
2022-07-26T16:44:36.151Z,4.82
2022-07-26T16:47:04.143Z,4.97
2022-07-26T16:49:31.425Z,5.38
2022-07-26T16:51:58.534Z,5.25
2022-07-26T16:54:25.917Z,5.05
2022-07-26T16:56:52.856Z,5.95
2022-07-26T16:59:19.808Z,6.22
2022-07-26T17:01:46.808Z,5.13
2022-07-26T17:04:13.978Z,5.28
2022-07-26T17:06:40.835Z,5.50
2022-07-26T17:09:09.381Z,4.53
2022-07-26T17:11:42.481Z,4.60
2022-07-26T17:14:09.364Z,3.95
2022-07-26T17:16:37.353Z,4.22
2022-07-26T17:19:04.472Z,4.65
2022-07-26T17:21:31.417Z,5.72
2022-07-26T17:24:00.583Z,5.40
2022-07-26T17:26:30.838Z,4.90
2022-07-26T17:28:58.431Z,4.93
2022-07-26T17:31:25.770Z,5.28
2022-07-26T17:33:52.757Z,4.70
2022-07-26T17:36:25.970Z,3.97
2022-07-26T17:38:54.667Z,3.20
2022-07-26T17:41:22.670Z,2.97
2022-07-26T17:43:52.774Z,3.38
2022-07-26T17:46:20.895Z,3.00
2022-07-26T17:48:48.152Z,2.38
2022-07-26T17:51:17.720Z,2.40
2022-07-26T17:53:51.045Z,2.10
2022-07-26T17:56:20.152Z,2.20
2022-07-26T17:58:47.098Z,2.03
2022-07-26T18:01:14.045Z,2.40
2022-07-26T18:03:40.938Z,2.00
2022-07-26T18:06:08.049Z,1.90
2022-07-26T18:08:34.954Z,2.10
2022-07-26T18:11:07.342Z,2.10
2022-07-26T18:13:34.441Z,1.88
2022-07-26T18:16:05.773Z,1.60
2022-07-26T18:18:33.250Z,1.60
2022-07-26T18:21:00.342Z,1.98
2022-07-26T18:23:27.269Z,1.67
2022-07-26T18:25:54.153Z,2.10
2022-07-26T18:28:21.159Z,2.03
2022-07-26T18:31:06.979Z,1.73
2022-07-26T18:33:37.725Z,2.20
2022-07-26T18:36:04.977Z,1.90
2022-07-26T18:38:31.901Z,1.88
2022-07-26T18:40:58.821Z,1.70
2022-07-26T18:43:25.663Z,2.00
2022-07-26T18:45:52.798Z,1.70
2022-07-26T18:48:19.805Z,1.50
2022-07-26T18:50:47.254Z,2.03
2022-07-26T18:53:14.213Z,2.05
2022-07-26T18:55:41.127Z,1.80
2022-07-26T18:58:08.585Z,1.65
2022-07-26T19:00:35.642Z,1.80
2022-07-26T19:03:02.678Z,2.17
2022-07-26T19:05:34.480Z,2.08
2022-07-26T19:08:03.113Z,1.80
2022-07-26T19:10:30.591Z,1.92
2022-07-26T19:12:57.437Z,1.90
2022-07-26T19:15:24.480Z,1.50
2022-07-26T19:17:51.618Z,1.48
2022-07-26T19:20:18.556Z,1.90
2022-07-26T19:22:47.225Z,2.10
2022-07-26T19:25:16.096Z,1.80
2022-07-26T19:27:44.120Z,1.60
2022-07-26T19:30:12.365Z,1.52
2022-07-26T19:32:39.519Z,1.65
2022-07-26T19:35:07.778Z,1.77
2022-07-26T19:37:34.754Z,1.77
2022-07-26T19:40:03.592Z,1.40
2022-07-26T19:42:31.994Z,1.30
2022-07-26T19:45:00.095Z,1.40
2022-07-26T19:47:28.933Z,1.30
2022-07-26T19:49:57.303Z,1.50
2022-07-26T19:52:24.242Z,1.23
2022-07-26T19:54:51.733Z,1.23
2022-07-26T19:57:19.467Z,1.20
2022-07-26T19:59:47.495Z,1.30
2022-07-26T20:02:14.934Z,1.20
2022-07-26T20:04:45.913Z,1.30
2022-07-26T20:07:15.953Z,1.23
2022-07-26T20:09:42.865Z,1.30
2022-07-26T20:12:09.740Z,1.10
2022-07-26T20:14:36.621Z,1.35
2022-07-26T20:17:03.794Z,1.58
2022-07-26T20:19:39.180Z,1.33
2022-07-26T20:22:06.127Z,1.27
2022-07-26T20:24:33.090Z,1.40
2022-07-26T20:26:59.922Z,1.77
2022-07-26T20:29:26.889Z,1.60
2022-07-26T20:31:53.800Z,1.60
2022-07-26T20:34:20.758Z,1.30
2022-07-26T20:36:47.848Z,1.58
2022-07-26T20:39:15.646Z,1.50
2022-07-26T20:41:42.749Z,1.08
2022-07-26T20:44:09.675Z,1.42
2022-07-26T20:46:39.901Z,1.55
2022-07-26T20:49:08.158Z,1.15
2022-07-26T20:51:35.650Z,1.45
2022-07-26T20:54:03.240Z,1.27
2022-07-26T20:56:32.391Z,1.48
2022-07-26T20:59:02.076Z,1.40
2022-07-26T21:01:33.432Z,1.25
2022-07-26T21:04:00.599Z,1.38
2022-07-26T21:06:29.040Z,1.40
2022-07-26T21:08:57.733Z,1.20
2022-07-26T21:11:25.017Z,1.40
2022-07-26T21:13:53.143Z,1.60
2022-07-26T21:16:20.507Z,1.45
2022-07-26T21:18:52.392Z,1.60
2022-07-26T21:21:21.039Z,1.15
2022-07-26T21:23:48.553Z,1.20
2022-07-26T21:26:15.437Z,1.25
2022-07-26T21:28:42.293Z,1.25
2022-07-26T21:31:09.277Z,1.05
2022-07-26T21:33:36.195Z,1.25
2022-07-26T21:36:03.182Z,1.27
2022-07-26T21:38:31.924Z,1.10
2022-07-26T21:40:59.641Z,1.60
2022-07-26T21:43:26.525Z,1.20
2022-07-26T21:45:53.596Z,0.98
2022-07-26T21:48:21.675Z,1.17
2022-07-26T21:50:48.674Z,1.20
2022-07-26T21:53:15.697Z,1.30
2022-07-26T21:55:42.739Z,1.30
2022-07-26T21:58:10.225Z,1.33
2022-07-26T22:00:39.053Z,1.27
2022-07-26T22:03:07.228Z,1.17
2022-07-26T22:05:42.357Z,0.90
2022-07-26T22:08:14.836Z,1.20
2022-07-26T22:10:45.124Z,1.20
2022-07-26T22:13:13.950Z,1.30
2022-07-26T22:15:41.061Z,1.38
2022-07-26T22:18:09.786Z,1.17
2022-07-26T22:20:37.333Z,1.60
2022-07-26T22:23:11.685Z,1.30
2022-07-26T22:25:46.874Z,1.60
2022-07-26T22:28:18.283Z,1.20
2022-07-26T22:30:46.388Z,1.10
2022-07-26T22:33:13.461Z,1.40
2022-07-26T22:35:40.412Z,0.95
2022-07-26T22:38:11.201Z,1.80
2022-07-26T22:40:41.453Z,1.10
2022-07-26T22:43:09.883Z,1.20
2022-07-26T22:45:37.694Z,1.23
2022-07-26T22:48:06.334Z,1.50
2022-07-26T22:50:33.869Z,1.50
2022-07-26T22:53:00.982Z,1.40
2022-07-26T22:55:28.535Z,1.13
2022-07-26T22:57:55.882Z,1.63
2022-07-26T23:00:22.970Z,1.65
2022-07-26T23:02:50.138Z,1.42
2022-07-26T23:05:17.128Z,1.67
2022-07-26T23:07:47.211Z,1.33
2022-07-26T23:10:16.466Z,1.20
2022-07-26T23:12:44.127Z,1.20
2022-07-26T23:15:11.918Z,0.80
2022-07-26T23:17:39.341Z,1.08
2022-07-26T23:20:09.408Z,1.25
2022-07-26T23:22:38.196Z,1.20
2022-07-26T23:25:06.268Z,0.82
2022-07-26T23:27:33.243Z,0.90
2022-07-26T23:30:00.155Z,0.82
2022-07-26T23:32:27.079Z,1.00
2022-07-26T23:34:53.910Z,0.70
2022-07-26T23:37:20.767Z,1.05
2022-07-26T23:39:47.634Z,1.40
2022-07-26T23:42:14.539Z,1.35
2022-07-26T23:44:41.328Z,1.15
2022-07-26T23:47:08.290Z,1.17
2022-07-26T23:49:35.210Z,1.42
2022-07-26T23:52:02.077Z,1.40
2022-07-26T23:54:28.989Z,0.90
2022-07-26T23:56:55.884Z,1.02
2022-07-26T23:59:22.737Z,1.00
